createdAt,value
2017-12-01T00:02:14.806Z,5.37
2017-12-01T00:04:43.024Z,5.53
2017-12-01T00:07:10.523Z,6.47
2017-12-01T00:09:38.135Z,5.40
2017-12-01T00:12:06.375Z,6.10
2017-12-01T00:14:34.598Z,7.33
2017-12-01T00:17:02.080Z,5.40
2017-12-01T00:19:29.555Z,5.87
2017-12-01T00:21:57.812Z,5.30
2017-12-01T00:24:26.063Z,5.60
2017-12-01T00:26:53.523Z,5.80
2017-12-01T00:29:21.095Z,6.00
2017-12-01T00:31:48.559Z,6.10
2017-12-01T00:34:16.123Z,6.20
2017-12-01T00:36:44.388Z,6.57
2017-12-01T00:39:11.864Z,6.10
2017-12-01T00:41:40.083Z,6.93
2017-12-01T00:44:07.536Z,5.73
2017-12-01T00:46:35.013Z,6.07
2017-12-01T00:49:03.466Z,6.80
2017-12-01T00:51:30.919Z,6.97
2017-12-01T00:53:58.478Z,6.40
2017-12-01T00:56:26.805Z,6.70
2017-12-01T00:58:55.018Z,5.97
2017-12-01T01:01:22.586Z,6.50
2017-12-01T01:03:50.033Z,5.60
2017-12-01T01:06:17.537Z,6.70
2017-12-01T01:08:45.007Z,6.13
2017-12-01T01:11:13.230Z,6.20
2017-12-01T01:13:40.711Z,5.60
2017-12-01T01:16:08.203Z,5.17
2017-12-01T01:18:36.426Z,6.03
2017-12-01T01:21:03.887Z,6.13
2017-12-01T01:23:31.355Z,6.20
2017-12-01T01:25:58.813Z,6.60
2017-12-01T01:28:26.334Z,6.07
2017-12-01T01:30:53.780Z,6.17
2017-12-01T01:33:21.235Z,6.50
2017-12-01T01:35:48.703Z,5.73
2017-12-01T01:38:16.201Z,6.00
2017-12-01T01:40:43.647Z,6.90
2017-12-01T01:43:11.677Z,6.10
2017-12-01T01:45:39.180Z,6.87
2017-12-01T01:48:06.627Z,6.53
2017-12-01T01:50:34.093Z,6.00
2017-12-01T01:53:01.647Z,6.40
2017-12-01T01:55:29.126Z,6.07
2017-12-01T01:57:58.334Z,5.47
2017-12-01T02:00:26.566Z,5.63
2017-12-01T02:02:54.014Z,5.73
2017-12-01T02:05:21.483Z,6.37
2017-12-01T02:07:48.963Z,5.70
2017-12-01T02:10:17.179Z,6.27
2017-12-01T02:12:44.632Z,6.70
2017-12-01T02:15:12.131Z,6.30
2017-12-01T02:17:40.502Z,6.30
2017-12-01T02:20:07.962Z,6.37
2017-12-01T02:22:35.516Z,5.87
2017-12-01T02:25:03.077Z,5.77
2017-12-01T02:27:30.572Z,5.80
2017-12-01T02:29:58.094Z,5.63
2017-12-01T02:32:26.364Z,5.40
2017-12-01T02:34:53.883Z,4.53
2017-12-01T02:37:21.346Z,6.20
2017-12-01T02:39:48.927Z,5.47
2017-12-01T02:42:16.487Z,5.67
2017-12-01T02:44:43.943Z,4.60
2017-12-01T02:47:11.417Z,4.40
2017-12-01T02:49:39.662Z,4.60
2017-12-01T02:52:07.106Z,5.03
2017-12-01T02:54:34.697Z,4.63
2017-12-01T02:57:02.452Z,4.30
2017-12-01T02:59:29.907Z,5.77
2017-12-01T03:01:57.375Z,4.17
2017-12-01T03:04:25.595Z,5.73
2017-12-01T03:06:53.051Z,5.00
2017-12-01T03:09:20.667Z,5.10
2017-12-01T03:11:48.888Z,5.07
2017-12-01T03:14:16.392Z,5.60
2017-12-01T03:16:44.624Z,5.40
2017-12-01T03:19:12.084Z,4.90
2017-12-01T03:21:39.627Z,4.90
2017-12-01T03:24:07.144Z,5.13
2017-12-01T03:26:35.363Z,5.57
2017-12-01T03:29:03.432Z,5.20
2017-12-01T03:31:31.644Z,5.10
2017-12-01T03:33:59.203Z,5.20
2017-12-01T03:36:26.760Z,4.77
2017-12-01T03:38:54.323Z,4.50
2017-12-01T03:41:21.859Z,4.70
2017-12-01T03:43:49.331Z,4.90
2017-12-01T03:46:16.914Z,4.30
2017-12-01T03:48:45.230Z,5.80
2017-12-01T03:51:12.687Z,5.43
2017-12-01T03:53:40.183Z,4.10
2017-12-01T03:56:08.459Z,5.17
2017-12-01T03:58:36.951Z,4.43
2017-12-01T04:01:05.178Z,5.00
2017-12-01T04:03:32.670Z,5.13
2017-12-01T04:06:00.930Z,4.80
2017-12-01T04:08:28.408Z,4.23
2017-12-01T04:10:56.667Z,3.90
2017-12-01T04:13:24.226Z,4.43
2017-12-01T04:15:52.255Z,4.03
2017-12-01T04:18:19.740Z,4.37
2017-12-01T04:20:47.223Z,4.30
2017-12-01T04:23:15.444Z,4.33
2017-12-01T04:25:42.931Z,3.93
2017-12-01T04:28:10.419Z,4.63
2017-12-01T04:30:38.659Z,4.33
2017-12-01T04:33:06.122Z,4.33
2017-12-01T04:35:33.632Z,4.20
2017-12-01T04:38:01.081Z,3.90
2017-12-01T04:40:29.506Z,4.50
2017-12-01T04:42:57.000Z,4.33
2017-12-01T04:45:25.223Z,3.83
2017-12-01T04:47:52.675Z,3.63
2017-12-01T04:50:20.150Z,3.77
2017-12-01T04:52:47.635Z,3.60
2017-12-01T04:55:15.855Z,3.83
2017-12-01T04:57:43.315Z,4.63
2017-12-01T05:00:10.898Z,4.60
2017-12-01T05:02:47.751Z,5.17
2017-12-01T05:05:15.695Z,6.17
2017-12-01T05:07:43.153Z,4.93
2017-12-01T05:10:11.141Z,4.10
2017-12-01T05:12:38.616Z,5.33
2017-12-01T05:15:06.066Z,4.40
2017-12-01T05:17:44.683Z,5.30
2017-12-01T05:20:12.261Z,4.80
2017-12-01T05:22:39.736Z,5.07
2017-12-01T05:25:07.952Z,7.63
2017-12-01T05:27:35.414Z,5.63
2017-12-01T05:30:02.993Z,5.57
2017-12-01T05:32:31.364Z,4.83
2017-12-01T05:34:58.828Z,3.93
2017-12-01T05:37:26.380Z,4.60
2017-12-01T05:40:09.852Z,4.50
2017-12-01T05:42:47.253Z,4.40
2017-12-01T05:45:15.343Z,4.57
2017-12-01T05:47:42.831Z,4.17
2017-12-01T05:50:10.307Z,5.23
2017-12-01T05:52:38.527Z,4.23
2017-12-01T05:55:05.984Z,4.43
2017-12-01T05:57:33.568Z,3.83
2017-12-01T06:00:01.019Z,5.00
2017-12-01T06:02:28.519Z,4.23
2017-12-01T06:04:57.113Z,3.83
2017-12-01T06:07:24.563Z,5.07
2017-12-01T06:09:52.136Z,4.43
2017-12-01T06:12:19.601Z,4.23
2017-12-01T06:14:47.062Z,4.43
2017-12-01T06:17:14.539Z,4.40
2017-12-01T06:19:41.999Z,4.07
2017-12-01T06:22:09.572Z,4.20
2017-12-01T06:24:37.831Z,5.37
2017-12-01T06:27:05.815Z,4.93
2017-12-01T06:29:34.073Z,4.67
2017-12-01T06:32:01.530Z,3.90
2017-12-01T06:34:29.091Z,5.17
2017-12-01T06:36:56.658Z,5.07
2017-12-01T06:39:25.595Z,4.17
2017-12-01T06:41:53.097Z,4.23
2017-12-01T06:44:20.663Z,4.70
2017-12-01T06:46:48.981Z,4.10
2017-12-01T06:49:16.450Z,3.77
2017-12-01T06:51:43.911Z,3.90
2017-12-01T06:54:11.398Z,3.97
2017-12-01T06:56:39.646Z,4.00
2017-12-01T06:59:07.137Z,4.30
2017-12-01T07:01:35.359Z,3.60
2017-12-01T07:04:02.887Z,4.20
2017-12-01T07:06:30.381Z,4.20
2017-12-01T07:09:14.222Z,4.20
2017-12-01T07:11:41.738Z,5.13
2017-12-01T07:14:09.321Z,4.33
2017-12-01T07:16:36.818Z,5.00
2017-12-01T07:19:04.271Z,4.10
2017-12-01T07:21:31.747Z,4.20
2017-12-01T07:23:59.978Z,4.67
2017-12-01T07:26:39.501Z,3.97
2017-12-01T07:29:07.000Z,3.50
2017-12-01T07:31:35.752Z,3.80
2017-12-01T07:34:03.251Z,4.37
2017-12-01T07:36:31.524Z,4.20
2017-12-01T07:38:58.973Z,4.07
2017-12-01T07:41:26.455Z,5.50
2017-12-01T07:43:58.838Z,5.53
2017-12-01T07:46:26.315Z,4.20
2017-12-01T07:48:54.670Z,4.90
2017-12-01T07:51:22.122Z,5.50
2017-12-01T07:53:49.566Z,5.40
2017-12-01T07:56:17.858Z,4.80
2017-12-01T07:58:45.303Z,4.30
2017-12-01T08:01:13.519Z,4.10
2017-12-01T08:03:41.066Z,5.40
2017-12-01T08:06:08.516Z,4.80
2017-12-01T08:08:36.038Z,4.17
2017-12-01T08:11:04.272Z,4.40
2017-12-01T08:13:31.727Z,4.63
2017-12-01T08:16:11.044Z,4.60
2017-12-01T08:18:48.573Z,5.17
2017-12-01T08:24:30.825Z,4.47
2017-12-01T08:27:00.467Z,4.70
2017-12-01T08:29:27.931Z,4.50
2017-12-01T08:31:55.408Z,3.10
2017-12-01T08:34:22.859Z,3.27
2017-12-01T08:36:50.316Z,2.90
2017-12-01T08:39:17.787Z,3.70
2017-12-01T08:41:46.031Z,3.00
2017-12-01T08:44:13.505Z,3.70
2017-12-01T08:46:41.064Z,3.20
2017-12-01T08:49:08.515Z,3.23
2017-12-01T08:51:36.067Z,3.13
2017-12-01T08:54:03.655Z,4.00
2017-12-01T08:56:31.926Z,3.47
2017-12-01T08:59:00.804Z,3.33
2017-12-01T09:01:28.975Z,3.57
2017-12-01T09:03:57.320Z,4.40
2017-12-01T09:06:24.799Z,4.00
2017-12-01T09:08:52.355Z,4.90
2017-12-01T09:11:21.408Z,4.50
2017-12-01T09:13:48.863Z,4.97
2017-12-01T09:16:16.313Z,4.43
2017-12-01T09:18:43.884Z,4.30
2017-12-01T09:21:11.358Z,5.40
2017-12-01T09:23:39.355Z,4.57
2017-12-01T09:26:07.584Z,4.83
2017-12-01T09:31:27.179Z,5.27
2017-12-01T09:33:54.651Z,5.27
2017-12-01T09:36:22.106Z,6.07
2017-12-01T09:38:49.583Z,5.60
2017-12-01T09:41:18.599Z,5.77
2017-12-01T09:43:46.055Z,5.83
2017-12-01T09:46:13.525Z,7.00
2017-12-01T09:48:41.036Z,5.40
2017-12-01T09:51:08.597Z,10.87
2017-12-01T09:53:37.240Z,6.10
2017-12-01T09:56:04.733Z,6.70
2017-12-01T09:58:32.195Z,6.17
2017-12-01T10:01:00.463Z,6.67
2017-12-01T10:03:27.915Z,6.23
2017-12-01T10:05:56.163Z,6.83
2017-12-01T10:08:23.652Z,6.50
2017-12-01T10:10:52.272Z,7.00
2017-12-01T10:13:20.607Z,6.77
2017-12-01T10:15:48.155Z,7.57
2017-12-01T10:18:15.635Z,6.90
2017-12-01T10:20:43.879Z,6.57
2017-12-01T10:23:11.351Z,7.10
2017-12-01T10:25:38.827Z,7.13
2017-12-01T10:28:07.043Z,6.90
2017-12-01T10:30:34.540Z,6.60
2017-12-01T10:33:02.023Z,7.30
2017-12-01T10:35:30.263Z,6.00
2017-12-01T10:37:57.722Z,6.63
2017-12-01T10:40:25.182Z,6.90
2017-12-01T10:42:52.632Z,6.37
2017-12-01T10:45:20.199Z,6.23
2017-12-01T10:47:47.739Z,5.77
2017-12-01T10:50:15.920Z,6.67
2017-12-01T10:52:43.785Z,6.30
2017-12-01T10:55:11.241Z,6.77
2017-12-01T10:57:38.707Z,6.53
2017-12-01T11:00:06.263Z,5.70
2017-12-01T11:02:34.776Z,5.93
2017-12-01T11:05:02.351Z,5.60
2017-12-01T11:07:30.603Z,5.53
2017-12-01T11:09:58.624Z,6.57
2017-12-01T11:12:26.099Z,6.20
2017-12-01T11:14:54.316Z,5.90
2017-12-01T11:17:21.763Z,6.00
2017-12-01T11:19:49.222Z,6.57
2017-12-01T11:22:16.673Z,5.70
2017-12-01T11:24:44.141Z,9.20
2017-12-01T11:30:02.265Z,6.57
2017-12-01T11:32:30.485Z,5.73
2017-12-01T11:34:57.947Z,12.20
2017-12-01T11:37:26.259Z,6.80
2017-12-01T11:39:54.534Z,6.13
2017-12-01T11:42:23.619Z,6.40
2017-12-01T11:44:53.279Z,5.87
2017-12-01T11:47:20.727Z,5.30
2017-12-01T11:49:49.465Z,5.57
2017-12-01T11:52:17.119Z,5.87
2017-12-01T11:54:44.568Z,5.73
2017-12-01T11:57:12.139Z,6.30
2017-12-01T11:59:41.132Z,5.83
2017-12-01T12:02:08.715Z,5.43
2017-12-01T12:04:36.923Z,5.57
2017-12-01T12:07:04.402Z,6.80
2017-12-01T12:09:31.858Z,6.00
2017-12-01T12:11:59.364Z,5.80
2017-12-01T12:14:26.910Z,5.80
2017-12-01T12:16:55.119Z,6.40
2017-12-01T12:19:22.582Z,5.73
2017-12-01T12:21:50.068Z,5.60
2017-12-01T12:24:17.518Z,6.70
2017-12-01T12:26:44.987Z,6.93
2017-12-01T12:29:12.463Z,5.40
2017-12-01T12:34:32.543Z,7.10
2017-12-01T12:36:59.992Z,6.83
2017-12-01T12:39:27.547Z,7.20
2017-12-01T12:41:55.128Z,6.03
2017-12-01T12:44:23.339Z,6.37
2017-12-01T12:46:50.791Z,5.90
2017-12-01T12:49:18.255Z,4.90
2017-12-01T12:51:45.707Z,4.63
2017-12-01T12:54:13.160Z,5.97
2017-12-01T12:56:40.659Z,5.87
2017-12-01T12:59:09.641Z,4.97
2017-12-01T13:01:37.149Z,5.67
2017-12-01T13:04:05.363Z,4.87
2017-12-01T13:06:32.823Z,5.00
2017-12-01T13:09:00.307Z,4.70
2017-12-01T13:11:29.701Z,6.07
2017-12-01T13:13:58.025Z,5.10
2017-12-01T13:16:25.494Z,5.73
2017-12-01T13:18:53.004Z,5.60
2017-12-01T13:21:21.214Z,5.83
2017-12-01T13:23:48.687Z,5.40
2017-12-01T13:26:16.267Z,7.10
2017-12-01T13:28:43.826Z,5.33
2017-12-01T13:31:11.332Z,5.40
2017-12-01T13:33:38.816Z,5.40
2017-12-01T13:36:07.953Z,5.53
2017-12-01T13:38:36.202Z,6.03
2017-12-01T13:41:03.687Z,5.13
2017-12-01T13:43:32.511Z,5.27
2017-12-01T13:46:00.003Z,4.97
2017-12-01T13:48:27.566Z,6.07
2017-12-01T13:50:55.081Z,8.17
2017-12-01T13:53:22.523Z,7.60
2017-12-01T13:55:50.092Z,7.70
2017-12-01T13:58:17.550Z,7.20
2017-12-01T14:00:45.011Z,8.00
2017-12-01T14:03:12.503Z,8.60
2017-12-01T14:05:55.827Z,9.07
2017-12-01T14:08:23.290Z,8.90
2017-12-01T14:10:51.696Z,9.90
2017-12-01T14:13:19.927Z,8.90
2017-12-01T14:15:47.380Z,8.87
2017-12-01T14:18:14.839Z,10.20
2017-12-01T14:20:42.311Z,9.53
2017-12-01T14:23:11.375Z,9.73
2017-12-01T14:25:38.910Z,10.30
2017-12-01T14:28:06.355Z,10.73
2017-12-01T14:30:35.030Z,11.53
2017-12-01T14:33:03.267Z,9.43
2017-12-01T14:35:30.719Z,9.77
2017-12-01T14:37:58.281Z,10.47
2017-12-01T14:40:26.583Z,10.60
2017-12-01T14:42:54.831Z,11.27
2017-12-01T14:45:22.383Z,10.73
2017-12-01T14:47:49.843Z,9.87
2017-12-01T14:50:18.234Z,10.87
2017-12-01T14:52:47.475Z,9.80
2017-12-01T14:55:16.197Z,11.60
2017-12-01T14:57:43.674Z,10.20
2017-12-01T15:00:11.895Z,12.10
2017-12-01T15:02:39.947Z,11.27
2017-12-01T15:05:07.459Z,12.00
2017-12-01T15:07:34.918Z,11.90
2017-12-01T15:10:02.396Z,11.30
2017-12-01T15:12:30.615Z,12.40
2017-12-01T15:14:58.083Z,11.93
2017-12-01T15:17:25.723Z,13.10
2017-12-01T15:19:53.890Z,12.83
2017-12-01T15:22:21.375Z,13.77
2017-12-01T15:24:48.987Z,12.67
2017-12-01T15:27:16.515Z,13.17
2017-12-01T15:29:44.015Z,13.50
2017-12-01T15:32:11.465Z,14.10
2017-12-01T15:34:38.931Z,14.17
2017-12-01T15:37:08.243Z,14.57
2017-12-01T15:39:35.729Z,14.30
2017-12-01T15:44:51.232Z,14.70
2017-12-01T15:47:20.195Z,13.63
2017-12-01T15:49:47.670Z,15.17
2017-12-01T15:52:15.155Z,15.37
2017-12-01T15:54:42.679Z,16.07
2017-12-01T15:57:10.134Z,14.63
2017-12-01T15:59:37.703Z,16.17
2017-12-01T16:02:05.928Z,15.73
2017-12-01T16:04:33.480Z,16.50
2017-12-01T16:07:01.511Z,16.20
2017-12-01T16:09:30.540Z,15.63
2017-12-01T16:11:58.004Z,15.70
2017-12-01T16:14:25.479Z,15.30
2017-12-01T16:16:52.940Z,15.87
2017-12-01T16:19:20.419Z,16.53
2017-12-01T16:21:48.642Z,16.10
2017-12-01T16:24:16.108Z,15.23
2017-12-01T16:26:43.700Z,16.10
2017-12-01T16:29:11.160Z,16.23
2017-12-01T16:31:39.436Z,15.93
2017-12-01T16:34:09.236Z,15.37
2017-12-01T16:36:36.799Z,15.20
2017-12-01T16:39:04.766Z,16.47
2017-12-01T16:41:32.758Z,15.13
2017-12-01T16:44:01.063Z,15.10
2017-12-01T16:46:28.511Z,16.30
2017-12-01T16:48:55.983Z,14.73
2017-12-01T16:51:23.519Z,15.13
2017-12-01T16:53:51.018Z,14.47
2017-12-01T16:56:18.499Z,15.70
2017-12-01T16:58:46.728Z,15.80
2017-12-01T17:01:14.182Z,14.70
2017-12-01T17:03:41.655Z,18.03
2017-12-01T17:06:09.183Z,15.30
2017-12-01T17:08:36.692Z,14.97
2017-12-01T17:11:05.013Z,15.90
2017-12-01T17:13:32.498Z,15.90
2017-12-01T17:16:00.030Z,15.57
2017-12-01T17:18:27.480Z,14.50
2017-12-01T17:20:54.967Z,16.13
2017-12-01T17:23:22.595Z,17.00
2017-12-01T17:25:50.101Z,16.63
2017-12-01T17:28:17.658Z,18.13
2017-12-01T17:30:45.220Z,16.67
2017-12-01T17:33:13.485Z,16.50
2017-12-01T17:35:42.262Z,18.60
2017-12-01T17:38:09.836Z,17.00
2017-12-01T17:40:37.315Z,17.13
2017-12-01T17:43:05.554Z,18.80
2017-12-01T17:45:33.128Z,16.87
2017-12-01T17:48:00.715Z,16.20
2017-12-01T17:53:20.796Z,16.50
2017-12-01T17:55:49.028Z,17.87
2017-12-01T17:58:16.475Z,15.10
2017-12-01T18:00:43.972Z,15.73
2017-12-01T18:03:11.511Z,15.40
2017-12-01T18:05:39.654Z,16.70
2017-12-01T18:08:07.139Z,16.73
2017-12-01T18:10:34.599Z,15.67
2017-12-01T18:13:02.171Z,16.57
2017-12-01T18:15:29.655Z,17.90
2017-12-01T18:17:57.116Z,18.90
2017-12-01T18:20:24.766Z,17.60
2017-12-01T18:22:52.998Z,16.90
2017-12-01T18:25:20.576Z,17.70
2017-12-01T18:27:48.051Z,18.57
2017-12-01T18:30:16.334Z,16.43
2017-12-01T18:32:44.558Z,16.63
2017-12-01T18:35:12.683Z,17.00
2017-12-01T18:37:41.195Z,17.17
2017-12-01T18:40:08.655Z,17.73
2017-12-01T18:42:36.123Z,17.13
2017-12-01T18:45:03.583Z,18.50
2017-12-01T18:47:31.039Z,17.37
2017-12-01T18:49:58.519Z,18.80
2017-12-01T18:52:26.739Z,17.53
2017-12-01T18:54:54.238Z,19.57
2017-12-01T18:57:21.792Z,19.47
2017-12-01T18:59:49.256Z,20.23
2017-12-01T19:02:17.503Z,21.17
2017-12-01T19:04:45.035Z,17.80
2017-12-01T19:07:12.523Z,19.53
2017-12-01T19:09:40.151Z,19.10
2017-12-01T19:12:07.600Z,18.93
2017-12-01T19:14:35.110Z,21.27
2017-12-01T19:17:03.439Z,21.00
2017-12-01T19:19:30.939Z,23.30
2017-12-01T19:21:58.399Z,22.77
2017-12-01T19:24:25.854Z,19.10
2017-12-01T19:26:53.339Z,19.37
2017-12-01T19:29:20.940Z,19.87
2017-12-01T19:31:48.427Z,19.57
2017-12-01T19:34:16.388Z,19.10
2017-12-01T19:36:43.852Z,19.73
2017-12-01T19:39:12.102Z,19.17
2017-12-01T19:41:39.684Z,18.93
2017-12-01T19:44:07.947Z,18.70
2017-12-01T19:46:35.435Z,20.10
2017-12-01T19:49:03.703Z,20.53
2017-12-01T19:51:31.967Z,20.53
2017-12-01T19:54:00.216Z,20.70
2017-12-01T19:56:27.675Z,21.90
2017-12-01T19:58:55.130Z,18.80
2017-12-01T20:01:24.055Z,21.10
2017-12-01T20:03:52.306Z,22.47
2017-12-01T20:06:19.767Z,20.13
2017-12-01T20:08:47.815Z,19.80
2017-12-01T20:11:15.342Z,19.97
2017-12-01T20:13:43.970Z,21.17
2017-12-01T20:16:22.295Z,20.73
2017-12-01T20:18:52.859Z,21.10
2017-12-01T20:21:20.365Z,20.50
2017-12-01T20:23:47.829Z,20.87
2017-12-01T20:26:15.335Z,22.73
2017-12-01T20:28:42.800Z,22.40
2017-12-01T20:31:10.251Z,20.83
2017-12-01T20:33:37.728Z,21.87
2017-12-01T20:36:05.205Z,23.10
2017-12-01T20:38:32.676Z,22.20
2017-12-01T20:41:00.895Z,23.23
2017-12-01T20:43:28.355Z,22.57
2017-12-01T20:45:55.827Z,23.00
2017-12-01T20:48:23.399Z,23.43
2017-12-01T20:50:50.855Z,22.30
2017-12-01T20:53:18.434Z,24.13
2017-12-01T20:55:46.679Z,22.43
2017-12-01T20:58:14.161Z,23.37
2017-12-01T21:00:42.400Z,22.97
2017-12-01T21:03:09.859Z,24.20
2017-12-01T21:05:37.335Z,23.17
2017-12-01T21:08:05.574Z,24.13
2017-12-01T21:10:33.037Z,22.37
2017-12-01T21:13:00.524Z,26.00
2017-12-01T21:15:28.075Z,24.43
2017-12-01T21:17:55.628Z,25.37
2017-12-01T21:20:23.187Z,25.10
2017-12-01T21:22:50.651Z,27.60
2017-12-01T21:25:18.890Z,24.27
2017-12-01T21:27:46.370Z,25.00
2017-12-01T21:30:13.982Z,25.30
2017-12-01T21:32:41.466Z,25.10
2017-12-01T21:35:08.927Z,25.03
2017-12-01T21:37:36.379Z,22.80
2017-12-01T21:40:03.854Z,24.97
2017-12-01T21:42:31.314Z,24.47
2017-12-01T21:44:58.774Z,24.43
2017-12-01T21:47:26.434Z,23.07
2017-12-01T21:49:54.933Z,25.20
2017-12-01T21:55:14.328Z,25.23
2017-12-01T21:57:41.787Z,25.07
2017-12-01T22:00:09.259Z,24.57
2017-12-01T22:02:36.855Z,24.53
2017-12-01T22:05:04.415Z,26.77
2017-12-01T22:07:32.655Z,26.23
2017-12-01T22:10:00.103Z,25.87
2017-12-01T22:12:27.599Z,25.57
2017-12-01T22:14:55.079Z,25.20
2017-12-01T22:17:23.321Z,25.90
2017-12-01T22:19:50.807Z,26.27
2017-12-01T22:22:19.059Z,27.20
2017-12-01T22:24:46.625Z,29.17
2017-12-01T22:27:14.080Z,28.87
2017-12-01T22:29:41.588Z,29.30
2017-12-01T22:32:09.147Z,28.63
2017-12-01T22:34:37.035Z,29.30
2017-12-01T22:37:04.518Z,29.63
2017-12-01T22:39:31.987Z,29.77
2017-12-01T22:42:00.300Z,33.40
2017-12-01T22:44:27.763Z,34.90
2017-12-01T22:46:55.251Z,31.00
2017-12-01T22:49:23.948Z,35.40
2017-12-01T22:51:51.502Z,31.43
2017-12-01T22:54:19.051Z,28.20
2017-12-01T22:56:47.232Z,30.60
2017-12-01T22:59:14.795Z,29.37
2017-12-01T23:01:42.339Z,32.23
2017-12-01T23:04:10.779Z,29.83
2017-12-01T23:06:38.280Z,30.87
2017-12-01T23:09:05.771Z,29.43
2017-12-01T23:11:33.255Z,31.40
2017-12-01T23:14:00.763Z,30.87
2017-12-01T23:16:28.308Z,30.80
2017-12-01T23:18:55.779Z,31.73
2017-12-01T23:21:24.027Z,32.10
2017-12-01T23:23:51.487Z,31.70
2017-12-01T23:26:18.980Z,30.50
2017-12-01T23:28:46.435Z,28.73
2017-12-01T23:31:13.967Z,30.77
2017-12-01T23:33:42.223Z,29.37
2017-12-01T23:36:09.795Z,30.60
2017-12-01T23:38:37.267Z,28.90
2017-12-01T23:41:06.721Z,27.67
2017-12-01T23:43:34.188Z,28.47
2017-12-01T23:46:01.719Z,27.60
2017-12-01T23:48:29.187Z,26.97
2017-12-01T23:50:56.675Z,26.60
2017-12-01T23:53:24.236Z,25.50
2017-12-01T23:55:51.748Z,24.87
2017-12-01T23:58:19.227Z,27.83
